sensor_id;sensor_type;location;lat;lon;timestamp;P1;durP1;ratioP1;P2;durP2;ratioP2
61756;SDS011;57225;61.460;24.060;2024-02-28T00:01:51;19.70;;;4.00;;
61756;SDS011;57225;61.460;24.060;2024-02-28T00:04:37;7.65;;;3.17;;
61756;SDS011;57225;61.460;24.060;2024-02-28T00:07:23;31.20;;;4.22;;
61756;SDS011;57225;61.460;24.060;2024-02-28T00:10:08;19.92;;;4.50;;
61756;SDS011;57225;61.460;24.060;2024-02-28T00:12:52;6.03;;;3.60;;
61756;SDS011;57225;61.460;24.060;2024-02-28T00:15:36;16.55;;;4.25;;
61756;SDS011;57225;61.460;24.060;2024-02-28T00:18:22;15.55;;;4.10;;
61756;SDS011;57225;61.460;24.060;2024-02-28T00:21:07;9.70;;;4.35;;
61756;SDS011;57225;61.460;24.060;2024-02-28T00:23:52;7.55;;;3.83;;
61756;SDS011;57225;61.460;24.060;2024-02-28T00:26:40;29.05;;;4.22;;
61756;SDS011;57225;61.460;24.060;2024-02-28T00:29:25;6.93;;;3.72;;
61756;SDS011;57225;61.460;24.060;2024-02-28T00:32:10;8.55;;;4.32;;
61756;SDS011;57225;61.460;24.060;2024-02-28T00:34:54;7.25;;;3.92;;
61756;SDS011;57225;61.460;24.060;2024-02-28T00:37:39;8.65;;;3.30;;
61756;SDS011;57225;61.460;24.060;2024-02-28T00:40:23;10.70;;;3.80;;
61756;SDS011;57225;61.460;24.060;2024-02-28T00:43:09;11.57;;;3.60;;
61756;SDS011;57225;61.460;24.060;2024-02-28T00:45:53;26.50;;;4.15;;
61756;SDS011;57225;61.460;24.060;2024-02-28T00:48:39;7.30;;;4.32;;
61756;SDS011;57225;61.460;24.060;2024-02-28T00:51:23;27.95;;;4.20;;
61756;SDS011;57225;61.460;24.060;2024-02-28T00:54:08;12.98;;;4.20;;
61756;SDS011;57225;61.460;24.060;2024-02-28T00:56:52;29.80;;;4.47;;
61756;SDS011;57225;61.460;24.060;2024-02-28T00:59:37;26.73;;;3.67;;
61756;SDS011;57225;61.460;24.060;2024-02-28T01:02:21;24.48;;;4.78;;
61756;SDS011;57225;61.460;24.060;2024-02-28T01:05:06;16.20;;;4.53;;
61756;SDS011;57225;61.460;24.060;2024-02-28T01:07:50;57.95;;;5.15;;
61756;SDS011;57225;61.460;24.060;2024-02-28T01:10:34;44.20;;;5.65;;
61756;SDS011;57225;61.460;24.060;2024-02-28T01:13:20;18.65;;;4.57;;
61756;SDS011;57225;61.460;24.060;2024-02-28T01:16:04;14.90;;;4.68;;
61756;SDS011;57225;61.460;24.060;2024-02-28T01:18:49;41.30;;;5.18;;
61756;SDS011;57225;61.460;24.060;2024-02-28T01:21:33;29.63;;;4.65;;
61756;SDS011;57225;61.460;24.060;2024-02-28T01:24:18;9.57;;;4.03;;
61756;SDS011;57225;61.460;24.060;2024-02-28T01:27:02;25.77;;;4.38;;
61756;SDS011;57225;61.460;24.060;2024-02-28T01:29:46;29.75;;;4.57;;
61756;SDS011;57225;61.460;24.060;2024-02-28T01:32:31;15.05;;;3.85;;
61756;SDS011;57225;61.460;24.060;2024-02-28T01:35:15;20.40;;;5.32;;
61756;SDS011;57225;61.460;24.060;2024-02-28T01:38:00;8.90;;;4.20;;
61756;SDS011;57225;61.460;24.060;2024-02-28T01:40:47;19.58;;;4.68;;
61756;SDS011;57225;61.460;24.060;2024-02-28T01:43:31;18.70;;;4.18;;
61756;SDS011;57225;61.460;24.060;2024-02-28T01:46:25;7.30;;;4.40;;
61756;SDS011;57225;61.460;24.060;2024-02-28T01:49:11;13.23;;;4.32;;
61756;SDS011;57225;61.460;24.060;2024-02-28T01:51:55;9.35;;;3.92;;
61756;SDS011;57225;61.460;24.060;2024-02-28T01:54:41;24.45;;;4.95;;
61756;SDS011;57225;61.460;24.060;2024-02-28T01:57:25;19.52;;;4.93;;
61756;SDS011;57225;61.460;24.060;2024-02-28T02:00:11;10.60;;;5.10;;
61756;SDS011;57225;61.460;24.060;2024-02-28T02:22:16;6.65;;;3.55;;
61756;SDS011;57225;61.460;24.060;2024-02-28T02:25:05;6.60;;;3.50;;
61756;SDS011;57225;61.460;24.060;2024-02-28T02:27:50;5.80;;;3.33;;
61756;SDS011;57225;61.460;24.060;2024-02-28T02:30:35;5.40;;;3.13;;
61756;SDS011;57225;61.460;24.060;2024-02-28T02:33:19;7.82;;;3.25;;
61756;SDS011;57225;61.460;24.060;2024-02-28T02:36:04;15.05;;;3.85;;
61756;SDS011;57225;61.460;24.060;2024-02-28T02:38:48;15.07;;;3.90;;
61756;SDS011;57225;61.460;24.060;2024-02-28T02:41:33;7.70;;;3.13;;
61756;SDS011;57225;61.460;24.060;2024-02-28T02:44:18;13.10;;;3.70;;
61756;SDS011;57225;61.460;24.060;2024-02-28T02:47:02;6.32;;;3.30;;
61756;SDS011;57225;61.460;24.060;2024-02-28T02:49:47;5.32;;;3.38;;
61756;SDS011;57225;61.460;24.060;2024-02-28T02:52:31;10.70;;;3.15;;
61756;SDS011;57225;61.460;24.060;2024-02-28T02:55:16;3.88;;;2.67;;
61756;SDS011;57225;61.460;24.060;2024-02-28T02:58:00;3.97;;;2.40;;
61756;SDS011;57225;61.460;24.060;2024-02-28T03:00:46;3.08;;;2.22;;
61756;SDS011;57225;61.460;24.060;2024-02-28T03:03:30;4.13;;;2.63;;
61756;SDS011;57225;61.460;24.060;2024-02-28T03:06:15;4.55;;;3.00;;
61756;SDS011;57225;61.460;24.060;2024-02-28T03:08:59;3.45;;;2.42;;
61756;SDS011;57225;61.460;24.060;2024-02-28T03:11:44;2.88;;;2.08;;
61756;SDS011;57225;61.460;24.060;2024-02-28T03:14:28;3.15;;;2.22;;
61756;SDS011;57225;61.460;24.060;2024-02-28T03:17:13;3.28;;;1.92;;
61756;SDS011;57225;61.460;24.060;2024-02-28T03:19:59;3.65;;;2.35;;
61756;SDS011;57225;61.460;24.060;2024-02-28T03:22:43;5.10;;;2.08;;
61756;SDS011;57225;61.460;24.060;2024-02-28T03:25:28;2.90;;;1.85;;
61756;SDS011;57225;61.460;24.060;2024-02-28T03:28:12;3.42;;;2.17;;
61756;SDS011;57225;61.460;24.060;2024-02-28T03:30:57;3.40;;;2.00;;
61756;SDS011;57225;61.460;24.060;2024-02-28T03:33:41;2.33;;;1.65;;
61756;SDS011;57225;61.460;24.060;2024-02-28T03:36:27;2.85;;;1.92;;
61756;SDS011;57225;61.460;24.060;2024-02-28T03:39:12;2.78;;;1.88;;
61756;SDS011;57225;61.460;24.060;2024-02-28T03:41:57;2.65;;;1.85;;
61756;SDS011;57225;61.460;24.060;2024-02-28T03:44:41;3.05;;;1.80;;
61756;SDS011;57225;61.460;24.060;2024-02-28T03:47:26;2.00;;;1.63;;
61756;SDS011;57225;61.460;24.060;2024-02-28T03:50:10;2.30;;;1.63;;
61756;SDS011;57225;61.460;24.060;2024-02-28T03:52:55;2.28;;;1.45;;
61756;SDS011;57225;61.460;24.060;2024-02-28T03:55:39;1.88;;;1.48;;
61756;SDS011;57225;61.460;24.060;2024-02-28T03:58:24;3.30;;;2.00;;
61756;SDS011;57225;61.460;24.060;2024-02-28T04:01:08;2.95;;;1.83;;
61756;SDS011;57225;61.460;24.060;2024-02-28T04:03:52;2.30;;;1.67;;
61756;SDS011;57225;61.460;24.060;2024-02-28T04:06:37;3.25;;;1.98;;
61756;SDS011;57225;61.460;24.060;2024-02-28T04:09:21;2.40;;;1.60;;
61756;SDS011;57225;61.460;24.060;2024-02-28T04:12:06;3.20;;;1.90;;
61756;SDS011;57225;61.460;24.060;2024-02-28T04:14:50;1.80;;;1.55;;
61756;SDS011;57225;61.460;24.060;2024-02-28T04:17:35;2.63;;;1.92;;
61756;SDS011;57225;61.460;24.060;2024-02-28T04:20:20;2.88;;;2.00;;
61756;SDS011;57225;61.460;24.060;2024-02-28T04:23:04;2.45;;;1.80;;
61756;SDS011;57225;61.460;24.060;2024-02-28T04:25:49;2.75;;;1.98;;
61756;SDS011;57225;61.460;24.060;2024-02-28T04:28:34;3.20;;;1.80;;
61756;SDS011;57225;61.460;24.060;2024-02-28T04:31:18;2.78;;;2.00;;
61756;SDS011;57225;61.460;24.060;2024-02-28T04:34:03;2.90;;;2.13;;
61756;SDS011;57225;61.460;24.060;2024-02-28T04:36:47;3.83;;;2.05;;
61756;SDS011;57225;61.460;24.060;2024-02-28T04:39:32;2.97;;;2.03;;
61756;SDS011;57225;61.460;24.060;2024-02-28T04:42:16;2.78;;;1.83;;
61756;SDS011;57225;61.460;24.060;2024-02-28T04:45:01;2.33;;;1.80;;
61756;SDS011;57225;61.460;24.060;2024-02-28T04:47:46;2.85;;;2.10;;
61756;SDS011;57225;61.460;24.060;2024-02-28T04:50:31;2.70;;;2.20;;
61756;SDS011;57225;61.460;24.060;2024-02-28T04:53:15;3.67;;;2.20;;
61756;SDS011;57225;61.460;24.060;2024-02-28T04:56:00;4.63;;;2.42;;
61756;SDS011;57225;61.460;24.060;2024-02-28T04:58:44;3.15;;;2.13;;
61756;SDS011;57225;61.460;24.060;2024-02-28T05:01:29;4.63;;;1.90;;
61756;SDS011;57225;61.460;24.060;2024-02-28T05:04:14;3.25;;;1.70;;
61756;SDS011;57225;61.460;24.060;2024-02-28T05:06:58;4.32;;;2.40;;
61756;SDS011;57225;61.460;24.060;2024-02-28T05:09:43;3.03;;;1.98;;
61756;SDS011;57225;61.460;24.060;2024-02-28T05:12:27;2.80;;;2.05;;
61756;SDS011;57225;61.460;24.060;2024-02-28T05:15:11;2.95;;;2.30;;
61756;SDS011;57225;61.460;24.060;2024-02-28T05:17:56;6.10;;;2.50;;
61756;SDS011;57225;61.460;24.060;2024-02-28T05:20:40;2.78;;;2.05;;
61756;SDS011;57225;61.460;24.060;2024-02-28T05:23:25;4.10;;;2.30;;
61756;SDS011;57225;61.460;24.060;2024-02-28T05:26:09;4.07;;;2.50;;
61756;SDS011;57225;61.460;24.060;2024-02-28T05:28:54;5.85;;;2.30;;
61756;SDS011;57225;61.460;24.060;2024-02-28T05:31:38;4.18;;;2.40;;
61756;SDS011;57225;61.460;24.060;2024-02-28T05:34:23;3.13;;;2.20;;
61756;SDS011;57225;61.460;24.060;2024-02-28T05:37:07;2.97;;;1.63;;
61756;SDS011;57225;61.460;24.060;2024-02-28T05:39:52;3.17;;;1.80;;
61756;SDS011;57225;61.460;24.060;2024-02-28T05:42:36;2.55;;;1.60;;
61756;SDS011;57225;61.460;24.060;2024-02-28T05:45:21;3.47;;;1.75;;
61756;SDS011;57225;61.460;24.060;2024-02-28T05:48:05;2.92;;;1.92;;
61756;SDS011;57225;61.460;24.060;2024-02-28T05:50:50;2.72;;;1.70;;
61756;SDS011;57225;61.460;24.060;2024-02-28T05:53:35;3.03;;;2.00;;
61756;SDS011;57225;61.460;24.060;2024-02-28T05:56:22;2.45;;;1.90;;
61756;SDS011;57225;61.460;24.060;2024-02-28T05:59:06;3.00;;;2.00;;
61756;SDS011;57225;61.460;24.060;2024-02-28T06:01:51;3.00;;;1.85;;
61756;SDS011;57225;61.460;24.060;2024-02-28T06:04:35;2.83;;;2.08;;
61756;SDS011;57225;61.460;24.060;2024-02-28T06:07:20;3.88;;;2.30;;
61756;SDS011;57225;61.460;24.060;2024-02-28T06:10:04;2.75;;;2.10;;
61756;SDS011;57225;61.460;24.060;2024-02-28T06:12:49;3.38;;;2.17;;
61756;SDS011;57225;61.460;24.060;2024-02-28T06:15:34;4.00;;;1.98;;
61756;SDS011;57225;61.460;24.060;2024-02-28T06:18:18;3.72;;;2.13;;
61756;SDS011;57225;61.460;24.060;2024-02-28T06:21:03;3.33;;;2.13;;
61756;SDS011;57225;61.460;24.060;2024-02-28T06:23:48;2.72;;;1.95;;
61756;SDS011;57225;61.460;24.060;2024-02-28T06:26:32;4.25;;;2.10;;
61756;SDS011;57225;61.460;24.060;2024-02-28T06:29:17;4.88;;;2.30;;
61756;SDS011;57225;61.460;24.060;2024-02-28T06:32:02;3.85;;;2.65;;
61756;SDS011;57225;61.460;24.060;2024-02-28T06:34:46;4.00;;;2.80;;
61756;SDS011;57225;61.460;24.060;2024-02-28T06:37:31;5.10;;;2.92;;
61756;SDS011;57225;61.460;24.060;2024-02-28T06:40:15;4.72;;;3.08;;
61756;SDS011;57225;61.460;24.060;2024-02-28T06:43:02;7.15;;;3.15;;
61756;SDS011;57225;61.460;24.060;2024-02-28T06:45:46;8.43;;;3.75;;
61756;SDS011;57225;61.460;24.060;2024-02-28T06:48:31;6.57;;;3.67;;
61756;SDS011;57225;61.460;24.060;2024-02-28T06:51:16;6.65;;;3.53;;
61756;SDS011;57225;61.460;24.060;2024-02-28T06:54:01;14.90;;;5.82;;
61756;SDS011;57225;61.460;24.060;2024-02-28T06:56:47;11.48;;;5.68;;
61756;SDS011;57225;61.460;24.060;2024-02-28T06:59:31;12.18;;;5.65;;
61756;SDS011;57225;61.460;24.060;2024-02-28T07:02:16;11.18;;;5.68;;
61756;SDS011;57225;61.460;24.060;2024-02-28T07:05:00;12.45;;;5.88;;
61756;SDS011;57225;61.460;24.060;2024-02-28T07:07:45;12.40;;;5.70;;
61756;SDS011;57225;61.460;24.060;2024-02-28T07:10:30;17.42;;;6.47;;
61756;SDS011;57225;61.460;24.060;2024-02-28T07:13:14;23.13;;;8.25;;
61756;SDS011;57225;61.460;24.060;2024-02-28T07:15:59;30.80;;;8.40;;
61756;SDS011;57225;61.460;24.060;2024-02-28T07:18:44;20.40;;;7.78;;
61756;SDS011;57225;61.460;24.060;2024-02-28T07:21:28;22.25;;;7.80;;
61756;SDS011;57225;61.460;24.060;2024-02-28T07:24:14;21.02;;;8.85;;
61756;SDS011;57225;61.460;24.060;2024-02-28T07:26:58;20.45;;;8.02;;
61756;SDS011;57225;61.460;24.060;2024-02-28T07:29:43;19.80;;;8.35;;
61756;SDS011;57225;61.460;24.060;2024-02-28T07:32:27;15.63;;;6.97;;
61756;SDS011;57225;61.460;24.060;2024-02-28T07:35:12;16.35;;;8.60;;
61756;SDS011;57225;61.460;24.060;2024-02-28T07:37:57;17.15;;;8.02;;
61756;SDS011;57225;61.460;24.060;2024-02-28T07:40:42;16.58;;;7.47;;
61756;SDS011;57225;61.460;24.060;2024-02-28T07:43:27;14.38;;;7.13;;
61756;SDS011;57225;61.460;24.060;2024-02-28T07:46:12;13.98;;;6.95;;
61756;SDS011;57225;61.460;24.060;2024-02-28T07:48:56;13.00;;;7.22;;
61756;SDS011;57225;61.460;24.060;2024-02-28T07:51:41;15.55;;;7.38;;
61756;SDS011;57225;61.460;24.060;2024-02-28T07:54:25;15.38;;;6.68;;
61756;SDS011;57225;61.460;24.060;2024-02-28T07:57:11;15.18;;;6.30;;
61756;SDS011;57225;61.460;24.060;2024-02-28T07:59:56;10.20;;;5.57;;
61756;SDS011;57225;61.460;24.060;2024-02-28T08:02:41;19.35;;;5.95;;
61756;SDS011;57225;61.460;24.060;2024-02-28T08:05:25;11.93;;;5.93;;
61756;SDS011;57225;61.460;24.060;2024-02-28T08:08:10;13.35;;;6.18;;
61756;SDS011;57225;61.460;24.060;2024-02-28T08:10:54;10.52;;;5.60;;
61756;SDS011;57225;61.460;24.060;2024-02-28T08:13:39;9.43;;;5.13;;
61756;SDS011;57225;61.460;24.060;2024-02-28T08:16:23;11.20;;;5.07;;
61756;SDS011;57225;61.460;24.060;2024-02-28T08:19:07;8.95;;;4.35;;
61756;SDS011;57225;61.460;24.060;2024-02-28T08:21:52;7.50;;;3.90;;
61756;SDS011;57225;61.460;24.060;2024-02-28T08:24:52;7.85;;;4.47;;
61756;SDS011;57225;61.460;24.060;2024-02-28T08:27:36;7.68;;;3.58;;
61756;SDS011;57225;61.460;24.060;2024-02-28T08:30:20;5.93;;;3.42;;
61756;SDS011;57225;61.460;24.060;2024-02-28T08:33:08;6.38;;;3.55;;
61756;SDS011;57225;61.460;24.060;2024-02-28T08:38:38;5.72;;;3.25;;
61756;SDS011;57225;61.460;24.060;2024-02-28T08:41:23;5.28;;;3.15;;
61756;SDS011;57225;61.460;24.060;2024-02-28T08:44:08;6.35;;;3.00;;
61756;SDS011;57225;61.460;24.060;2024-02-28T08:46:52;5.40;;;2.92;;
61756;SDS011;57225;61.460;24.060;2024-02-28T08:49:38;5.68;;;3.03;;
61756;SDS011;57225;61.460;24.060;2024-02-28T08:52:23;6.50;;;3.05;;
61756;SDS011;57225;61.460;24.060;2024-02-28T08:55:07;5.85;;;2.97;;
61756;SDS011;57225;61.460;24.060;2024-02-28T08:57:51;6.60;;;3.33;;
61756;SDS011;57225;61.460;24.060;2024-02-28T09:00:36;4.15;;;2.45;;
61756;SDS011;57225;61.460;24.060;2024-02-28T09:03:20;4.63;;;2.30;;
61756;SDS011;57225;61.460;24.060;2024-02-28T09:06:06;3.70;;;2.25;;
61756;SDS011;57225;61.460;24.060;2024-02-28T09:08:50;4.43;;;2.20;;
61756;SDS011;57225;61.460;24.060;2024-02-28T09:11:35;3.40;;;2.22;;
61756;SDS011;57225;61.460;24.060;2024-02-28T09:14:19;2.63;;;1.55;;
61756;SDS011;57225;61.460;24.060;2024-02-28T09:17:04;4.13;;;1.90;;
61756;SDS011;57225;61.460;24.060;2024-02-28T09:19:49;3.50;;;2.25;;
61756;SDS011;57225;61.460;24.060;2024-02-28T09:22:33;2.67;;;1.88;;
61756;SDS011;57225;61.460;24.060;2024-02-28T09:25:18;3.20;;;2.00;;
61756;SDS011;57225;61.460;24.060;2024-02-28T09:28:05;3.03;;;2.30;;
61756;SDS011;57225;61.460;24.060;2024-02-28T09:30:49;2.85;;;2.00;;
61756;SDS011;57225;61.460;24.060;2024-02-28T09:33:34;3.33;;;1.85;;
61756;SDS011;57225;61.460;24.060;2024-02-28T09:36:19;2.45;;;1.90;;
61756;SDS011;57225;61.460;24.060;2024-02-28T09:39:03;3.53;;;2.08;;
61756;SDS011;57225;61.460;24.060;2024-02-28T09:41:48;3.88;;;2.47;;
61756;SDS011;57225;61.460;24.060;2024-02-28T09:44:36;3.92;;;2.05;;
61756;SDS011;57225;61.460;24.060;2024-02-28T09:47:21;3.05;;;1.92;;
61756;SDS011;57225;61.460;24.060;2024-02-28T09:50:05;3.53;;;2.25;;
61756;SDS011;57225;61.460;24.060;2024-02-28T09:52:51;3.00;;;2.10;;
61756;SDS011;57225;61.460;24.060;2024-02-28T09:55:35;4.38;;;2.40;;
61756;SDS011;57225;61.460;24.060;2024-02-28T09:58:20;4.25;;;2.47;;
61756;SDS011;57225;61.460;24.060;2024-02-28T10:01:05;3.72;;;2.00;;
61756;SDS011;57225;61.460;24.060;2024-02-28T10:03:54;3.17;;;1.95;;
61756;SDS011;57225;61.460;24.060;2024-02-28T10:06:40;3.65;;;2.00;;
61756;SDS011;57225;61.460;24.060;2024-02-28T10:09:25;3.40;;;2.05;;
61756;SDS011;57225;61.460;24.060;2024-02-28T10:12:10;6.00;;;2.38;;
61756;SDS011;57225;61.460;24.060;2024-02-28T10:14:55;3.90;;;1.95;;
61756;SDS011;57225;61.460;24.060;2024-02-28T10:17:39;3.15;;;1.90;;
61756;SDS011;57225;61.460;24.060;2024-02-28T10:20:23;2.97;;;1.70;;
61756;SDS011;57225;61.460;24.060;2024-02-28T10:23:08;2.80;;;1.75;;
61756;SDS011;57225;61.460;24.060;2024-02-28T10:25:53;3.05;;;1.85;;
61756;SDS011;57225;61.460;24.060;2024-02-28T10:28:38;2.75;;;1.55;;
61756;SDS011;57225;61.460;24.060;2024-02-28T10:31:23;2.35;;;1.70;;
61756;SDS011;57225;61.460;24.060;2024-02-28T10:34:08;2.95;;;1.50;;
61756;SDS011;57225;61.460;24.060;2024-02-28T10:36:53;4.10;;;1.63;;
61756;SDS011;57225;61.460;24.060;2024-02-28T10:39:37;2.80;;;1.80;;
61756;SDS011;57225;61.460;24.060;2024-02-28T10:42:22;3.67;;;1.65;;
61756;SDS011;57225;61.460;24.060;2024-02-28T10:45:10;2.45;;;1.33;;
61756;SDS011;57225;61.460;24.060;2024-02-28T10:47:56;2.38;;;1.48;;
61756;SDS011;57225;61.460;24.060;2024-02-28T10:50:41;1.80;;;1.27;;
61756;SDS011;57225;61.460;24.060;2024-02-28T10:53:37;2.17;;;1.00;;
61756;SDS011;57225;61.460;24.060;2024-02-28T10:56:25;2.97;;;1.17;;
61756;SDS011;57225;61.460;24.060;2024-02-28T10:59:14;1.98;;;1.38;;
61756;SDS011;57225;61.460;24.060;2024-02-28T11:01:58;6.20;;;1.30;;
61756;SDS011;57225;61.460;24.060;2024-02-28T11:04:43;1.75;;;0.95;;
61756;SDS011;57225;61.460;24.060;2024-02-28T11:07:30;2.08;;;1.05;;
61756;SDS011;57225;61.460;24.060;2024-02-28T11:10:15;1.40;;;1.02;;
61756;SDS011;57225;61.460;24.060;2024-02-28T11:12:59;1.63;;;1.13;;
61756;SDS011;57225;61.460;24.060;2024-02-28T11:15:43;2.13;;;1.27;;
61756;SDS011;57225;61.460;24.060;2024-02-28T11:18:28;1.67;;;1.02;;
61756;SDS011;57225;61.460;24.060;2024-02-28T11:21:16;2.72;;;1.10;;
61756;SDS011;57225;61.460;24.060;2024-02-28T11:24:00;1.52;;;0.98;;
61756;SDS011;57225;61.460;24.060;2024-02-28T11:26:45;1.60;;;1.02;;
61756;SDS011;57225;61.460;24.060;2024-02-28T11:29:29;1.60;;;1.20;;
61756;SDS011;57225;61.460;24.060;2024-02-28T11:32:14;3.05;;;1.20;;
61756;SDS011;57225;61.460;24.060;2024-02-28T11:35:00;1.73;;;1.10;;
61756;SDS011;57225;61.460;24.060;2024-02-28T11:37:48;4.97;;;1.10;;
61756;SDS011;57225;61.460;24.060;2024-02-28T11:40:34;2.55;;;1.17;;
61756;SDS011;57225;61.460;24.060;2024-02-28T11:43:19;1.25;;;0.77;;
61756;SDS011;57225;61.460;24.060;2024-02-28T11:46:10;3.38;;;1.13;;
61756;SDS011;57225;61.460;24.060;2024-02-28T11:48:54;3.40;;;1.20;;
61756;SDS011;57225;61.460;24.060;2024-02-28T11:51:45;3.30;;;1.33;;
61756;SDS011;57225;61.460;24.060;2024-02-28T11:54:29;1.40;;;1.10;;
61756;SDS011;57225;61.460;24.060;2024-02-28T11:57:14;2.45;;;0.95;;
61756;SDS011;57225;61.460;24.060;2024-02-28T12:00:07;4.78;;;1.77;;
61756;SDS011;57225;61.460;24.060;2024-02-28T12:03:03;2.10;;;1.20;;
61756;SDS011;57225;61.460;24.060;2024-02-28T12:05:50;4.30;;;1.48;;
61756;SDS011;57225;61.460;24.060;2024-02-28T12:08:37;2.75;;;1.27;;
61756;SDS011;57225;61.460;24.060;2024-02-28T12:11:21;3.78;;;0.88;;
61756;SDS011;57225;61.460;24.060;2024-02-28T12:14:08;1.88;;;1.05;;
61756;SDS011;57225;61.460;24.060;2024-02-28T12:16:53;2.13;;;1.30;;
61756;SDS011;57225;61.460;24.060;2024-02-28T12:19:38;2.10;;;1.00;;
61756;SDS011;57225;61.460;24.060;2024-02-28T12:22:22;2.03;;;1.20;;
61756;SDS011;57225;61.460;24.060;2024-02-28T12:25:07;1.02;;;0.90;;
61756;SDS011;57225;61.460;24.060;2024-02-28T12:27:52;1.70;;;1.00;;
61756;SDS011;57225;61.460;24.060;2024-02-28T12:30:39;3.55;;;1.25;;
61756;SDS011;57225;61.460;24.060;2024-02-28T12:33:26;1.80;;;1.10;;
61756;SDS011;57225;61.460;24.060;2024-02-28T12:36:10;1.90;;;1.00;;
61756;SDS011;57225;61.460;24.060;2024-02-28T12:38:55;2.47;;;1.10;;
61756;SDS011;57225;61.460;24.060;2024-02-28T12:41:39;2.08;;;1.00;;
61756;SDS011;57225;61.460;24.060;2024-02-28T12:44:24;1.52;;;1.10;;
61756;SDS011;57225;61.460;24.060;2024-02-28T12:47:09;2.00;;;0.90;;
61756;SDS011;57225;61.460;24.060;2024-02-28T12:49:53;3.53;;;0.98;;
61756;SDS011;57225;61.460;24.060;2024-02-28T12:52:38;1.48;;;1.00;;
61756;SDS011;57225;61.460;24.060;2024-02-28T12:55:22;1.00;;;0.90;;
61756;SDS011;57225;61.460;24.060;2024-02-28T12:58:07;0.82;;;0.73;;
61756;SDS011;57225;61.460;24.060;2024-02-28T13:00:52;1.00;;;0.73;;
61756;SDS011;57225;61.460;24.060;2024-02-28T13:03:36;3.78;;;0.98;;
61756;SDS011;57225;61.460;24.060;2024-02-28T13:06:21;3.65;;;0.95;;
61756;SDS011;57225;61.460;24.060;2024-02-28T13:09:06;2.55;;;1.08;;
61756;SDS011;57225;61.460;24.060;2024-02-28T13:11:56;2.28;;;0.95;;
61756;SDS011;57225;61.460;24.060;2024-02-28T13:14:40;1.65;;;0.88;;
61756;SDS011;57225;61.460;24.060;2024-02-28T13:17:25;2.05;;;1.00;;
61756;SDS011;57225;61.460;24.060;2024-02-28T13:20:09;1.30;;;1.00;;
61756;SDS011;57225;61.460;24.060;2024-02-28T13:22:53;1.67;;;1.13;;
61756;SDS011;57225;61.460;24.060;2024-02-28T13:25:38;1.25;;;0.77;;
61756;SDS011;57225;61.460;24.060;2024-02-28T13:28:22;1.80;;;1.10;;
61756;SDS011;57225;61.460;24.060;2024-02-28T13:31:13;2.08;;;0.93;;
61756;SDS011;57225;61.460;24.060;2024-02-28T13:33:57;2.88;;;0.98;;
61756;SDS011;57225;61.460;24.060;2024-02-28T13:36:42;0.70;;;0.60;;
61756;SDS011;57225;61.460;24.060;2024-02-28T13:39:30;2.38;;;1.05;;
61756;SDS011;57225;61.460;24.060;2024-02-28T13:42:15;1.52;;;0.85;;
61756;SDS011;57225;61.460;24.060;2024-02-28T13:44:59;2.25;;;1.20;;
61756;SDS011;57225;61.460;24.060;2024-02-28T13:47:44;2.25;;;1.10;;
61756;SDS011;57225;61.460;24.060;2024-02-28T13:50:28;1.75;;;0.95;;
61756;SDS011;57225;61.460;24.060;2024-02-28T13:53:16;1.83;;;1.08;;
61756;SDS011;57225;61.460;24.060;2024-02-28T13:56:00;1.92;;;1.15;;
61756;SDS011;57225;61.460;24.060;2024-02-28T13:58:44;4.47;;;1.00;;
61756;SDS011;57225;61.460;24.060;2024-02-28T14:01:30;4.82;;;1.35;;
61756;SDS011;57225;61.460;24.060;2024-02-28T14:04:15;2.42;;;1.05;;
61756;SDS011;57225;61.460;24.060;2024-02-28T14:06:59;2.85;;;1.13;;
61756;SDS011;57225;61.460;24.060;2024-02-28T14:09:44;4.32;;;1.20;;
61756;SDS011;57225;61.460;24.060;2024-02-28T14:12:29;2.22;;;1.20;;
61756;SDS011;57225;61.460;24.060;2024-02-28T14:15:14;2.72;;;1.42;;
61756;SDS011;57225;61.460;24.060;2024-02-28T14:17:59;2.97;;;1.45;;
61756;SDS011;57225;61.460;24.060;2024-02-28T14:20:43;1.77;;;1.30;;
61756;SDS011;57225;61.460;24.060;2024-02-28T14:23:28;3.50;;;1.88;;
61756;SDS011;57225;61.460;24.060;2024-02-28T14:26:13;1.83;;;1.27;;
61756;SDS011;57225;61.460;24.060;2024-02-28T14:28:57;1.98;;;1.38;;
61756;SDS011;57225;61.460;24.060;2024-02-28T14:31:42;2.13;;;1.20;;
61756;SDS011;57225;61.460;24.060;2024-02-28T14:34:26;2.70;;;1.67;;
61756;SDS011;57225;61.460;24.060;2024-02-28T14:37:14;2.22;;;1.27;;
61756;SDS011;57225;61.460;24.060;2024-02-28T14:39:59;2.05;;;1.23;;
61756;SDS011;57225;61.460;24.060;2024-02-28T14:42:45;1.98;;;1.33;;
61756;SDS011;57225;61.460;24.060;2024-02-28T14:45:29;2.45;;;1.33;;
61756;SDS011;57225;61.460;24.060;2024-02-28T14:48:15;2.05;;;1.20;;
61756;SDS011;57225;61.460;24.060;2024-02-28T14:51:00;1.95;;;1.33;;
61756;SDS011;57225;61.460;24.060;2024-02-28T14:53:46;1.92;;;1.10;;
61756;SDS011;57225;61.460;24.060;2024-02-28T14:56:31;1.92;;;1.35;;
61756;SDS011;57225;61.460;24.060;2024-02-28T14:59:16;3.00;;;1.50;;
61756;SDS011;57225;61.460;24.060;2024-02-28T15:02:00;3.58;;;1.42;;
61756;SDS011;57225;61.460;24.060;2024-02-28T15:04:45;2.30;;;1.40;;
61756;SDS011;57225;61.460;24.060;2024-02-28T15:07:30;3.47;;;1.48;;
61756;SDS011;57225;61.460;24.060;2024-02-28T15:10:14;4.55;;;1.60;;
61756;SDS011;57225;61.460;24.060;2024-02-28T15:12:59;2.50;;;1.42;;
61756;SDS011;57225;61.460;24.060;2024-02-28T15:15:43;2.90;;;1.40;;
61756;SDS011;57225;61.460;24.060;2024-02-28T15:18:28;2.85;;;1.60;;
61756;SDS011;57225;61.460;24.060;2024-02-28T15:21:12;2.85;;;1.60;;
61756;SDS011;57225;61.460;24.060;2024-02-28T15:23:57;2.00;;;1.30;;
61756;SDS011;57225;61.460;24.060;2024-02-28T15:26:41;3.03;;;1.70;;
61756;SDS011;57225;61.460;24.060;2024-02-28T15:29:26;2.72;;;1.70;;
61756;SDS011;57225;61.460;24.060;2024-02-28T15:32:12;3.70;;;1.90;;
61756;SDS011;57225;61.460;24.060;2024-02-28T15:34:56;2.85;;;1.67;;
61756;SDS011;57225;61.460;24.060;2024-02-28T15:37:41;2.22;;;1.50;;
61756;SDS011;57225;61.460;24.060;2024-02-28T15:40:25;2.50;;;1.60;;
61756;SDS011;57225;61.460;24.060;2024-02-28T15:43:10;2.70;;;1.60;;
61756;SDS011;57225;61.460;24.060;2024-02-28T15:45:54;3.08;;;1.55;;
61756;SDS011;57225;61.460;24.060;2024-02-28T15:48:39;2.47;;;1.77;;
61756;SDS011;57225;61.460;24.060;2024-02-28T15:51:24;2.47;;;1.80;;
61756;SDS011;57225;61.460;24.060;2024-02-28T15:54:09;3.85;;;1.95;;
61756;SDS011;57225;61.460;24.060;2024-02-28T15:56:53;2.97;;;1.77;;
61756;SDS011;57225;61.460;24.060;2024-02-28T15:59:38;4.15;;;2.30;;
61756;SDS011;57225;61.460;24.060;2024-02-28T16:02:22;3.20;;;1.83;;
61756;SDS011;57225;61.460;24.060;2024-02-28T16:05:08;3.95;;;2.10;;
61756;SDS011;57225;61.460;24.060;2024-02-28T16:07:52;5.95;;;2.58;;
61756;SDS011;57225;61.460;24.060;2024-02-28T16:10:38;4.22;;;2.63;;
61756;SDS011;57225;61.460;24.060;2024-02-28T16:13:22;4.40;;;2.78;;
61756;SDS011;57225;61.460;24.060;2024-02-28T16:16:07;4.63;;;2.90;;
61756;SDS011;57225;61.460;24.060;2024-02-28T16:18:51;5.28;;;2.47;;
61756;SDS011;57225;61.460;24.060;2024-02-28T16:21:36;4.20;;;2.10;;
61756;SDS011;57225;61.460;24.060;2024-02-28T16:24:21;2.80;;;1.90;;
61756;SDS011;57225;61.460;24.060;2024-02-28T16:27:05;3.22;;;2.28;;
61756;SDS011;57225;61.460;24.060;2024-02-28T16:29:50;6.00;;;2.40;;
61756;SDS011;57225;61.460;24.060;2024-02-28T16:32:34;4.00;;;2.22;;
61756;SDS011;57225;61.460;24.060;2024-02-28T16:35:19;3.33;;;2.20;;
61756;SDS011;57225;61.460;24.060;2024-02-28T16:38:03;4.18;;;2.78;;
61756;SDS011;57225;61.460;24.060;2024-02-28T16:40:48;2.85;;;2.03;;